sensor_id;sensor_type;location;lat;lon;timestamp;temperature;humidity
66337;SHT30;53139;45.576;5.304;2023-05-06T00:00:19;13.71;90.95
66337;SHT30;53139;45.576;5.304;2023-05-06T00:03:21;13.94;89.20
66337;SHT30;53139;45.576;5.304;2023-05-06T00:06:22;13.86;89.65
66337;SHT30;53139;45.576;5.304;2023-05-06T00:09:22;13.74;90.14
66337;SHT30;53139;45.576;5.304;2023-05-06T00:12:23;13.74;87.49
66337;SHT30;53139;45.576;5.304;2023-05-06T00:15:23;13.48;91.87
66337;SHT30;53139;45.576;5.304;2023-05-06T00:18:24;13.39;93.15
66337;SHT30;53139;45.576;5.304;2023-05-06T00:21:24;13.63;91.43
66337;SHT30;53139;45.576;5.304;2023-05-06T00:24:26;13.50;91.33
66337;SHT30;53139;45.576;5.304;2023-05-06T00:27:26;13.50;91.94
66337;SHT30;53139;45.576;5.304;2023-05-06T00:30:26;13.48;92.61
66337;SHT30;53139;45.576;5.304;2023-05-06T00:33:27;13.47;90.96
66337;SHT30;53139;45.576;5.304;2023-05-06T00:36:27;13.27;91.95
66337;SHT30;53139;45.576;5.304;2023-05-06T00:39:29;13.22;92.71
66337;SHT30;53139;45.576;5.304;2023-05-06T00:42:29;13.19;92.41
66337;SHT30;53139;45.576;5.304;2023-05-06T00:45:30;13.02;92.53
66337;SHT30;53139;45.576;5.304;2023-05-06T00:48:31;12.99;93.01
66337;SHT30;53139;45.576;5.304;2023-05-06T00:51:31;13.03;92.53
66337;SHT30;53139;45.576;5.304;2023-05-06T00:54:31;13.02;92.77
66337;SHT30;53139;45.576;5.304;2023-05-06T00:57:32;12.89;93.44
66337;SHT30;53139;45.576;5.304;2023-05-06T01:00:32;12.95;92.38
66337;SHT30;53139;45.576;5.304;2023-05-06T01:03:33;12.98;92.44
66337;SHT30;53139;45.576;5.304;2023-05-06T01:06:59;12.82;92.99
66337;SHT30;53139;45.576;5.304;2023-05-06T01:13:30;12.96;92.28
66337;SHT30;53139;45.576;5.304;2023-05-06T01:16:37;12.91;92.18
66337;SHT30;53139;45.576;5.304;2023-05-06T01:19:43;12.58;93.78
66337;SHT30;53139;45.576;5.304;2023-05-06T01:22:48;12.69;92.78
66337;SHT30;53139;45.576;5.304;2023-05-06T01:25:49;12.89;89.28
66337;SHT30;53139;45.576;5.304;2023-05-06T01:28:49;12.84;89.43
66337;SHT30;53139;45.576;5.304;2023-05-06T01:31:50;12.60;93.53
66337;SHT30;53139;45.576;5.304;2023-05-06T01:38:15;12.51;91.79
66337;SHT30;53139;45.576;5.304;2023-05-06T01:41:16;12.27;91.18
66337;SHT30;53139;45.576;5.304;2023-05-06T01:44:20;12.30;93.68
66337;SHT30;53139;45.576;5.304;2023-05-06T01:47:22;12.36;94.13
66337;SHT30;53139;45.576;5.304;2023-05-06T01:50:22;12.36;94.88
66337;SHT30;53139;45.576;5.304;2023-05-06T01:53:23;12.37;94.22
66337;SHT30;53139;45.576;5.304;2023-05-06T01:56:23;12.32;92.80
66337;SHT30;53139;45.576;5.304;2023-05-06T01:59:23;12.29;93.87
66337;SHT30;53139;45.576;5.304;2023-05-06T02:02:24;12.20;93.78
66337;SHT30;53139;45.576;5.304;2023-05-06T02:05:24;12.20;94.39
66337;SHT30;53139;45.576;5.304;2023-05-06T02:08:25;12.17;94.00
66337;SHT30;53139;45.576;5.304;2023-05-06T02:11:25;12.12;93.64
66337;SHT30;53139;45.576;5.304;2023-05-06T02:14:26;12.23;93.69
66337;SHT30;53139;45.576;5.304;2023-05-06T02:17:26;12.17;93.08
66337;SHT30;53139;45.576;5.304;2023-05-06T02:20:27;12.23;92.93
66337;SHT30;53139;45.576;5.304;2023-05-06T02:23:28;12.08;94.13
66337;SHT30;53139;45.576;5.304;2023-05-06T02:26:28;12.06;94.99
66337;SHT30;53139;45.576;5.304;2023-05-06T02:29:28;12.15;94.06
66337;SHT30;53139;45.576;5.304;2023-05-06T02:32:29;11.98;95.33
66337;SHT30;53139;45.576;5.304;2023-05-06T02:35:29;11.90;94.70
66337;SHT30;53139;45.576;5.304;2023-05-06T02:38:29;11.81;96.06
66337;SHT30;53139;45.576;5.304;2023-05-06T02:41:30;11.72;96.13
66337;SHT30;53139;45.576;5.304;2023-05-06T02:44:30;11.88;95.30
66337;SHT30;53139;45.576;5.304;2023-05-06T02:47:31;11.99;93.40
66337;SHT30;53139;45.576;5.304;2023-05-06T02:50:33;11.96;94.11
66337;SHT30;53139;45.576;5.304;2023-05-06T02:53:33;11.77;95.02
66337;SHT30;53139;45.576;5.304;2023-05-06T02:56:33;11.88;94.85
66337;SHT30;53139;45.576;5.304;2023-05-06T02:59:34;11.77;94.99
66337;SHT30;53139;45.576;5.304;2023-05-06T03:02:35;11.78;94.58
66337;SHT30;53139;45.576;5.304;2023-05-06T03:05:35;11.71;94.60
66337;SHT30;53139;45.576;5.304;2023-05-06T03:08:36;11.57;95.57
66337;SHT30;53139;45.576;5.304;2023-05-06T03:11:36;11.67;94.41
66337;SHT30;53139;45.576;5.304;2023-05-06T03:14:36;11.77;93.86
66337;SHT30;53139;45.576;5.304;2023-05-06T03:17:37;11.71;93.95
66337;SHT30;53139;45.576;5.304;2023-05-06T03:20:37;11.47;95.05
66337;SHT30;53139;45.576;5.304;2023-05-06T03:23:38;11.41;95.32
66337;SHT30;53139;45.576;5.304;2023-05-06T03:26:38;11.48;94.73
66337;SHT30;53139;45.576;5.304;2023-05-06T03:29:39;11.54;94.83
66337;SHT30;53139;45.576;5.304;2023-05-06T03:32:39;11.51;94.57
66337;SHT30;53139;45.576;5.304;2023-05-06T03:35:39;11.55;94.04
66337;SHT30;53139;45.576;5.304;2023-05-06T03:38:40;11.50;94.08
66337;SHT30;53139;45.576;5.304;2023-05-06T03:41:40;11.40;94.46
66337;SHT30;53139;45.576;5.304;2023-05-06T03:44:41;11.41;95.01
66337;SHT30;53139;45.576;5.304;2023-05-06T03:47:41;11.34;94.18
66337;SHT30;53139;45.576;5.304;2023-05-06T03:50:41;11.07;95.79
66337;SHT30;53139;45.576;5.304;2023-05-06T03:53:42;11.30;94.20
66337;SHT30;53139;45.576;5.304;2023-05-06T03:56:42;11.20;95.10
66337;SHT30;53139;45.576;5.304;2023-05-06T03:59:43;11.34;94.34
66337;SHT30;53139;45.576;5.304;2023-05-06T04:02:43;11.33;93.97
66337;SHT30;53139;45.576;5.304;2023-05-06T04:05:44;11.27;93.78
66337;SHT30;53139;45.576;5.304;2023-05-06T04:08:45;11.34;93.68
66337;SHT30;53139;45.576;5.304;2023-05-06T04:11:45;11.19;94.29
66337;SHT30;53139;45.576;5.304;2023-05-06T04:14:47;11.23;93.95
66337;SHT30;53139;45.576;5.304;2023-05-06T04:17:47;11.19;94.29
66337;SHT30;53139;45.576;5.304;2023-05-06T04:20:48;11.16;94.27
66337;SHT30;53139;45.576;5.304;2023-05-06T04:23:48;11.03;94.95
66337;SHT30;53139;45.576;5.304;2023-05-06T04:26:49;11.03;94.86
66337;SHT30;53139;45.576;5.304;2023-05-06T04:29:49;11.16;94.14
66337;SHT30;53139;45.576;5.304;2023-05-06T04:32:49;11.24;93.51
66337;SHT30;53139;45.576;5.304;2023-05-06T04:35:51;11.13;94.02
66337;SHT30;53139;45.576;5.304;2023-05-06T04:38:52;11.19;94.09
66337;SHT30;53139;45.576;5.304;2023-05-06T04:41:53;11.13;93.86
66337;SHT30;53139;45.576;5.304;2023-05-06T04:44:53;11.09;94.28
66337;SHT30;53139;45.576;5.304;2023-05-06T04:47:53;11.12;94.09
66337;SHT30;53139;45.576;5.304;2023-05-06T04:50:54;11.13;94.00
66337;SHT30;53139;45.576;5.304;2023-05-06T04:53:54;11.19;94.11
66337;SHT30;53139;45.576;5.304;2023-05-06T04:56:55;11.09;94.54
66337;SHT30;53139;45.576;5.304;2023-05-06T04:59:55;11.06;94.68
66337;SHT30;53139;45.576;5.304;2023-05-06T05:02:56;11.13;94.23
66337;SHT30;53139;45.576;5.304;2023-05-06T05:05:56;11.19;94.24
66337;SHT30;53139;45.576;5.304;2023-05-06T05:08:57;11.15;94.43
66337;SHT30;53139;45.576;5.304;2023-05-06T05:12:00;11.27;93.54
66337;SHT30;53139;45.576;5.304;2023-05-06T05:15:01;11.31;93.50
66337;SHT30;53139;45.576;5.304;2023-05-06T05:18:08;11.31;93.62
66337;SHT30;53139;45.576;5.304;2023-05-06T05:21:08;11.47;93.30
66337;SHT30;53139;45.576;5.304;2023-05-06T05:24:09;11.54;93.76
66337;SHT30;53139;45.576;5.304;2023-05-06T05:27:09;11.68;93.32
66337;SHT30;53139;45.576;5.304;2023-05-06T05:30:10;11.68;94.06
66337;SHT30;53139;45.576;5.304;2023-05-06T05:33:10;11.75;93.44
66337;SHT30;53139;45.576;5.304;2023-05-06T05:36:11;11.78;93.84
66337;SHT30;53139;45.576;5.304;2023-05-06T05:39:14;11.88;93.53
66337;SHT30;53139;45.576;5.304;2023-05-06T05:42:14;12.03;92.34
66337;SHT30;53139;45.576;5.304;2023-05-06T05:45:15;11.89;93.71
66337;SHT30;53139;45.576;5.304;2023-05-06T05:48:15;12.09;92.74
66337;SHT30;53139;45.576;5.304;2023-05-06T05:51:16;12.15;93.03
66337;SHT30;53139;45.576;5.304;2023-05-06T05:54:16;12.43;91.38
66337;SHT30;53139;45.576;5.304;2023-05-06T05:57:16;12.45;91.65
66337;SHT30;53139;45.576;5.304;2023-05-06T06:00:17;12.60;92.27
66337;SHT30;53139;45.576;5.304;2023-05-06T06:03:18;12.60;92.01
66337;SHT30;53139;45.576;5.304;2023-05-06T06:06:18;12.68;91.74
66337;SHT30;53139;45.576;5.304;2023-05-06T06:09:19;12.92;91.03
66337;SHT30;53139;45.576;5.304;2023-05-06T06:12:19;13.09;90.37
66337;SHT30;53139;45.576;5.304;2023-05-06T06:15:20;13.39;89.88
66337;SHT30;53139;45.576;5.304;2023-05-06T06:18:20;13.43;88.74
66337;SHT30;53139;45.576;5.304;2023-05-06T06:21:21;13.63;90.00
66337;SHT30;53139;45.576;5.304;2023-05-06T06:24:21;13.71;88.65
66337;SHT30;53139;45.576;5.304;2023-05-06T06:27:22;13.82;87.91
66337;SHT30;53139;45.576;5.304;2023-05-06T06:30:22;13.88;88.80
66337;SHT30;53139;45.576;5.304;2023-05-06T06:33:23;13.98;87.37
66337;SHT30;53139;45.576;5.304;2023-05-06T06:36:23;14.16;87.68
66337;SHT30;53139;45.576;5.304;2023-05-06T06:39:23;14.36;87.84
66337;SHT30;53139;45.576;5.304;2023-05-06T06:42:24;14.54;87.21
66337;SHT30;53139;45.576;5.304;2023-05-06T06:45:24;14.61;86.44
66337;SHT30;53139;45.576;5.304;2023-05-06T06:48:24;14.78;86.74
66337;SHT30;53139;45.576;5.304;2023-05-06T06:51:25;14.93;89.37
66337;SHT30;53139;45.576;5.304;2023-05-06T06:54:25;14.96;87.23
66337;SHT30;53139;45.576;5.304;2023-05-06T06:57:26;15.20;85.99
66337;SHT30;53139;45.576;5.304;2023-05-06T07:00:26;15.32;86.79
66337;SHT30;53139;45.576;5.304;2023-05-06T07:03:26;15.64;87.08
66337;SHT30;53139;45.576;5.304;2023-05-06T07:06:27;15.78;86.27
66337;SHT30;53139;45.576;5.304;2023-05-06T07:09:27;15.97;85.46
66337;SHT30;53139;45.576;5.304;2023-05-06T07:12:27;16.20;86.19
66337;SHT30;53139;45.576;5.304;2023-05-06T07:15:28;16.36;86.19
66337;SHT30;53139;45.576;5.304;2023-05-06T07:18:28;16.57;84.64
66337;SHT30;53139;45.576;5.304;2023-05-06T07:21:28;16.68;83.95
66337;SHT30;53139;45.576;5.304;2023-05-06T07:24:31;16.85;84.94
66337;SHT30;53139;45.576;5.304;2023-05-06T07:27:31;16.94;83.77
66337;SHT30;53139;45.576;5.304;2023-05-06T07:30:32;17.08;83.86
66337;SHT30;53139;45.576;5.304;2023-05-06T07:33:32;17.22;83.22
66337;SHT30;53139;45.576;5.304;2023-05-06T07:36:32;17.37;84.65
66337;SHT30;53139;45.576;5.304;2023-05-06T07:39:39;17.43;83.05
66337;SHT30;53139;45.576;5.304;2023-05-06T07:42:40;17.40;82.60
66337;SHT30;53139;45.576;5.304;2023-05-06T07:45:40;17.60;82.24
66337;SHT30;53139;45.576;5.304;2023-05-06T07:48:40;17.66;82.46
66337;SHT30;53139;45.576;5.304;2023-05-06T07:51:41;17.87;82.53
66337;SHT30;53139;45.576;5.304;2023-05-06T07:54:41;17.91;82.24
66337;SHT30;53139;45.576;5.304;2023-05-06T07:57:42;18.04;82.00
66337;SHT30;53139;45.576;5.304;2023-05-06T08:00:42;18.15;81.51
66337;SHT30;53139;45.576;5.304;2023-05-06T08:03:43;17.94;80.83
66337;SHT30;53139;45.576;5.304;2023-05-06T08:06:43;17.94;81.14
66337;SHT30;53139;45.576;5.304;2023-05-06T08:09:44;18.11;80.91
66337;SHT30;53139;45.576;5.304;2023-05-06T08:12:44;18.30;80.29
66337;SHT30;53139;45.576;5.304;2023-05-06T08:15:45;18.54;80.47
66337;SHT30;53139;45.576;5.304;2023-05-06T08:18:45;18.59;79.14
66337;SHT30;53139;45.576;5.304;2023-05-06T08:21:46;18.68;80.01
66337;SHT30;53139;45.576;5.304;2023-05-06T08:24:48;19.08;79.39
66337;SHT30;53139;45.576;5.304;2023-05-06T08:28:19;18.53;78.80
66337;SHT30;53139;45.576;5.304;2023-05-06T08:32:37;18.73;78.60
66337;SHT30;53139;45.576;5.304;2023-05-06T08:40:57;19.53;76.44
66337;SHT30;53139;45.576;5.304;2023-05-06T08:49:22;20.11;75.14
66337;SHT30;53139;45.576;5.304;2023-05-06T08:52:39;20.70;73.93
66337;SHT30;53139;45.576;5.304;2023-05-06T08:56:00;20.98;75.06
66337;SHT30;53139;45.576;5.304;2023-05-06T08:59:31;21.55;72.59
66337;SHT30;53139;45.576;5.304;2023-05-06T09:02:49;21.80;70.54
66337;SHT30;53139;45.576;5.304;2023-05-06T09:05:50;22.39;68.53
66337;SHT30;53139;45.576;5.304;2023-05-06T09:08:50;21.96;69.01
66337;SHT30;53139;45.576;5.304;2023-05-06T09:11:51;22.37;69.14
66337;SHT30;53139;45.576;5.304;2023-05-06T09:14:56;22.83;66.10
66337;SHT30;53139;45.576;5.304;2023-05-06T09:17:56;23.03;66.49
66337;SHT30;53139;45.576;5.304;2023-05-06T09:20:57;22.83;65.21
66337;SHT30;53139;45.576;5.304;2023-05-06T09:23:58;23.44;64.56
66337;SHT30;53139;45.576;5.304;2023-05-06T09:26:59;23.28;64.02
66337;SHT30;53139;45.576;5.304;2023-05-06T09:30:06;23.69;65.42
66337;SHT30;53139;45.576;5.304;2023-05-06T09:33:07;23.39;64.89
66337;SHT30;53139;45.576;5.304;2023-05-06T09:36:08;23.87;63.10
66337;SHT30;53139;45.576;5.304;2023-05-06T09:39:12;24.45;63.68
66337;SHT30;53139;45.576;5.304;2023-05-06T09:42:12;24.09;63.91
66337;SHT30;53139;45.576;5.304;2023-05-06T09:45:14;24.73;61.26
66337;SHT30;53139;45.576;5.304;2023-05-06T09:48:29;24.87;61.34
66337;SHT30;53139;45.576;5.304;2023-05-06T09:52:11;23.32;61.85
66337;SHT30;53139;45.576;5.304;2023-05-06T09:55:58;25.13;61.54
66337;SHT30;53139;45.576;5.304;2023-05-06T09:59:31;25.47;59.79
66337;SHT30;53139;45.576;5.304;2023-05-06T10:02:50;25.58;58.65
66337;SHT30;53139;45.576;5.304;2023-05-06T10:06:19;24.99;62.77
66337;SHT30;53139;45.576;5.304;2023-05-06T10:09:53;26.02;59.21
66337;SHT30;53139;45.576;5.304;2023-05-06T10:13:18;25.26;60.48
66337;SHT30;53139;45.576;5.304;2023-05-06T10:16:41;25.81;61.27
66337;SHT30;53139;45.576;5.304;2023-05-06T10:20:15;25.89;57.21
66337;SHT30;53139;45.576;5.304;2023-05-06T10:27:14;27.04;55.87
66337;SHT30;53139;45.576;5.304;2023-05-06T10:31:00;26.45;57.53
66337;SHT30;53139;45.576;5.304;2023-05-06T10:34:25;26.45;55.23
66337;SHT30;53139;45.576;5.304;2023-05-06T10:38:03;27.43;55.48
66337;SHT30;53139;45.576;5.304;2023-05-06T10:41:45;27.46;55.29
66337;SHT30;53139;45.576;5.304;2023-05-06T10:45:27;26.44;58.50
66337;SHT30;53139;45.576;5.304;2023-05-06T10:52:11;27.95;56.01
66337;SHT30;53139;45.576;5.304;2023-05-06T10:55:28;26.45;54.95
66337;SHT30;53139;45.576;5.304;2023-05-06T10:58:34;27.62;54.12
66337;SHT30;53139;45.576;5.304;2023-05-06T11:01:42;28.41;52.96
66337;SHT30;53139;45.576;5.304;2023-05-06T11:04:49;27.72;54.91
66337;SHT30;53139;45.576;5.304;2023-05-06T11:07:51;26.52;57.06
66337;SHT30;53139;45.576;5.304;2023-05-06T11:10:55;27.20;53.80
66337;SHT30;53139;45.576;5.304;2023-05-06T11:14:10;26.93;54.57
66337;SHT30;53139;45.576;5.304;2023-05-06T11:17:31;28.37;57.61
66337;SHT30;53139;45.576;5.304;2023-05-06T11:20:32;28.95;52.26
66337;SHT30;53139;45.576;5.304;2023-05-06T11:26:52;27.38;52.14
66337;SHT30;53139;45.576;5.304;2023-05-06T11:29:53;27.91;54.52
66337;SHT30;53139;45.576;5.304;2023-05-06T11:32:57;28.61;50.59
66337;SHT30;53139;45.576;5.304;2023-05-06T11:36:13;28.91;51.48
66337;SHT30;53139;45.576;5.304;2023-05-06T11:39:14;30.39;50.59
66337;SHT30;53139;45.576;5.304;2023-05-06T11:42:25;28.88;50.51
66337;SHT30;53139;45.576;5.304;2023-05-06T11:45:42;29.68;50.79
66337;SHT30;53139;45.576;5.304;2023-05-06T11:48:46;30.18;48.15
66337;SHT30;53139;45.576;5.304;2023-05-06T11:51:47;29.47;49.42
66337;SHT30;53139;45.576;5.304;2023-05-06T11:54:51;29.75;51.84
66337;SHT30;53139;45.576;5.304;2023-05-06T11:57:52;30.43;51.14
66337;SHT30;53139;45.576;5.304;2023-05-06T12:00:55;30.25;52.62
66337;SHT30;53139;45.576;5.304;2023-05-06T12:03:55;30.43;48.94
66337;SHT30;53139;45.576;5.304;2023-05-06T12:06:56;31.42;47.43
66337;SHT30;53139;45.576;5.304;2023-05-06T12:09:57;32.04;47.10
66337;SHT30;53139;45.576;5.304;2023-05-06T12:13:03;31.23;44.85
66337;SHT30;53139;45.576;5.304;2023-05-06T12:16:06;31.67;46.08
66337;SHT30;53139;45.576;5.304;2023-05-06T12:19:10;32.42;44.87
66337;SHT30;53139;45.576;5.304;2023-05-06T12:22:17;30.67;50.23
66337;SHT30;53139;45.576;5.304;2023-05-06T12:25:18;32.72;46.76
66337;SHT30;53139;45.576;5.304;2023-05-06T12:28:20;32.04;45.16
66337;SHT30;53139;45.576;5.304;2023-05-06T12:31:32;28.74;48.08
66337;SHT30;53139;45.576;5.304;2023-05-06T12:34:39;30.16;48.24
66337;SHT30;53139;45.576;5.304;2023-05-06T12:37:40;31.30;45.91
66337;SHT30;53139;45.576;5.304;2023-05-06T12:40:51;32.57;47.92
66337;SHT30;53139;45.576;5.304;2023-05-06T12:43:52;29.05;46.48
66337;SHT30;53139;45.576;5.304;2023-05-06T12:46:53;32.24;46.87
66337;SHT30;53139;45.576;5.304;2023-05-06T12:49:55;32.14;46.35
66337;SHT30;53139;45.576;5.304;2023-05-06T12:52:59;33.69;41.87
66337;SHT30;53139;45.576;5.304;2023-05-06T12:56:00;32.91;43.17
66337;SHT30;53139;45.576;5.304;2023-05-06T12:59:01;31.74;44.08
66337;SHT30;53139;45.576;5.304;2023-05-06T13:02:03;28.88;47.63
66337;SHT30;53139;45.576;5.304;2023-05-06T13:05:04;31.35;47.76
66337;SHT30;53139;45.576;5.304;2023-05-06T13:08:04;31.77;45.05
66337;SHT30;53139;45.576;5.304;2023-05-06T13:11:05;32.63;45.50
66337;SHT30;53139;45.576;5.304;2023-05-06T13:14:05;32.83;42.83
66337;SHT30;53139;45.576;5.304;2023-05-06T13:17:06;33.56;41.69
66337;SHT30;53139;45.576;5.304;2023-05-06T13:20:07;29.78;50.60
66337;SHT30;53139;45.576;5.304;2023-05-06T13:23:08;32.96;42.79
66337;SHT30;53139;45.576;5.304;2023-05-06T13:26:08;32.91;41.93
66337;SHT30;53139;45.576;5.304;2023-05-06T13:29:08;32.38;42.24
66337;SHT30;53139;45.576;5.304;2023-05-06T13:32:09;30.46;44.47
66337;SHT30;53139;45.576;5.304;2023-05-06T13:35:09;31.47;45.43
66337;SHT30;53139;45.576;5.304;2023-05-06T13:38:10;31.39;43.30
66337;SHT30;53139;45.576;5.304;2023-05-06T13:41:10;33.28;43.47
66337;SHT30;53139;45.576;5.304;2023-05-06T13:44:10;33.01;42.24
66337;SHT30;53139;45.576;5.304;2023-05-06T13:47:11;31.35;40.94
66337;SHT30;53139;45.576;5.304;2023-05-06T13:50:11;33.12;42.57
66337;SHT30;53139;45.576;5.304;2023-05-06T13:53:12;32.22;41.57
66337;SHT30;53139;45.576;5.304;2023-05-06T13:56:13;31.54;43.74
66337;SHT30;53139;45.576;5.304;2023-05-06T13:59:13;33.32;39.16
66337;SHT30;53139;45.576;5.304;2023-05-06T14:02:14;32.02;43.75
66337;SHT30;53139;45.576;5.304;2023-05-06T14:05:15;33.85;40.78
66337;SHT30;53139;45.576;5.304;2023-05-06T14:12:14;33.24;42.53
66337;SHT30;53139;45.576;5.304;2023-05-06T14:15:15;33.72;39.86
66337;SHT30;53139;45.576;5.304;2023-05-06T14:18:15;30.33;44.25
66337;SHT30;53139;45.576;5.304;2023-05-06T14:21:16;30.87;44.79
66337;SHT30;53139;45.576;5.304;2023-05-06T14:24:16;29.68;44.13
66337;SHT30;53139;45.576;5.304;2023-05-06T14:27:17;31.87;42.07
66337;SHT30;53139;45.576;5.304;2023-05-06T14:30:17;30.95;45.41
66337;SHT30;53139;45.576;5.304;2023-05-06T14:33:19;32.40;42.61
66337;SHT30;53139;45.576;5.304;2023-05-06T14:36:19;33.53;41.42
66337;SHT30;53139;45.576;5.304;2023-05-06T14:39:20;31.42;41.54
66337;SHT30;53139;45.576;5.304;2023-05-06T14:42:20;30.99;43.63
66337;SHT30;53139;45.576;5.304;2023-05-06T14:45:21;31.36;44.06
66337;SHT30;53139;45.576;5.304;2023-05-06T14:48:21;31.91;43.44
66337;SHT30;53139;45.576;5.304;2023-05-06T14:51:21;32.17;40.89
66337;SHT30;53139;45.576;5.304;2023-05-06T14:54:22;32.15;41.48
66337;SHT30;53139;45.576;5.304;2023-05-06T14:57:22;30.65;46.07
66337;SHT30;53139;45.576;5.304;2023-05-06T15:00:23;29.20;47.79
66337;SHT30;53139;45.576;5.304;2023-05-06T15:03:24;29.19;45.85
66337;SHT30;53139;45.576;5.304;2023-05-06T15:06:24;28.68;47.75
66337;SHT30;53139;45.576;5.304;2023-05-06T15:09:25;27.92;47.12
66337;SHT30;53139;45.576;5.304;2023-05-06T15:12:25;27.62;49.33
66337;SHT30;53139;45.576;5.304;2023-05-06T15:15:25;27.09;49.25
66337;SHT30;53139;45.576;5.304;2023-05-06T15:18:26;26.86;48.96
66337;SHT30;53139;45.576;5.304;2023-05-06T15:21:26;26.72;51.19
66337;SHT30;53139;45.576;5.304;2023-05-06T15:24:27;26.88;49.10
66337;SHT30;53139;45.576;5.304;2023-05-06T15:27:27;27.07;49.51
66337;SHT30;53139;45.576;5.304;2023-05-06T15:30:27;26.89;50.86
66337;SHT30;53139;45.576;5.304;2023-05-06T15:33:28;26.19;52.58
66337;SHT30;53139;45.576;5.304;2023-05-06T15:36:28;26.37;51.62
66337;SHT30;53139;45.576;5.304;2023-05-06T15:39:34;26.19;53.65
66337;SHT30;53139;45.576;5.304;2023-05-06T15:42:37;26.07;52.29
66337;SHT30;53139;45.576;5.304;2023-05-06T15:45:37;25.93;52.70
66337;SHT30;53139;45.576;5.304;2023-05-06T15:48:37;25.59;52.36
66337;SHT30;53139;45.576;5.304;2023-05-06T15:51:38;25.90;52.88
66337;SHT30;53139;45.576;5.304;2023-05-06T15:54:38;25.86;51.98
66337;SHT30;53139;45.576;5.304;2023-05-06T15:57:38;25.62;53.28
66337;SHT30;53139;45.576;5.304;2023-05-06T16:00:39;25.83;53.50
66337;SHT30;53139;45.576;5.304;2023-05-06T16:03:39;25.92;52.86
66337;SHT30;53139;45.576;5.304;2023-05-06T16:06:40;25.90;54.58
66337;SHT30;53139;45.576;5.304;2023-05-06T16:09:40;25.79;54.06
66337;SHT30;53139;45.576;5.304;2023-05-06T16:12:41;25.57;53.67
66337;SHT30;53139;45.576;5.304;2023-05-06T16:15:42;25.66;55.04
66337;SHT30;53139;45.576;5.304;2023-05-06T16:18:43;25.42;54.77
66337;SHT30;53139;45.576;5.304;2023-05-06T16:21:43;25.49;55.19
66337;SHT30;53139;45.576;5.304;2023-05-06T16:24:43;25.21;54.07
66337;SHT30;53139;45.576;5.304;2023-05-06T16:27:44;25.13;54.49
66337;SHT30;53139;45.576;5.304;2023-05-06T16:30:44;25.38;54.33
66337;SHT30;53139;45.576;5.304;2023-05-06T16:33:45;25.17;55.26
66337;SHT30;53139;45.576;5.304;2023-05-06T16:36:45;25.38;55.36
66337;SHT30;53139;45.576;5.304;2023-05-06T16:39:46;25.28;55.24
66337;SHT30;53139;45.576;5.304;2023-05-06T16:42:47;25.33;55.29
66337;SHT30;53139;45.576;5.304;2023-05-06T16:45:48;25.11;56.41
66337;SHT30;53139;45.576;5.304;2023-05-06T16:48:48;24.86;55.35
66337;SHT30;53139;45.576;5.304;2023-05-06T16:51:48;24.93;56.36
66337;SHT30;53139;45.576;5.304;2023-05-06T16:54:49;24.92;60.77
66337;SHT30;53139;45.576;5.304;2023-05-06T16:57:52;24.76;59.49
66337;SHT30;53139;45.576;5.304;2023-05-06T17:00:52;24.65;57.38
66337;SHT30;53139;45.576;5.304;2023-05-06T17:03:53;24.71;57.30
66337;SHT30;53139;45.576;5.304;2023-05-06T17:06:53;24.94;56.29
66337;SHT30;53139;45.576;5.304;2023-05-06T17:09:54;24.58;60.67
66337;SHT30;53139;45.576;5.304;2023-05-06T17:12:55;24.44;60.13
66337;SHT30;53139;45.576;5.304;2023-05-06T17:15:56;24.39;60.37
66337;SHT30;53139;45.576;5.304;2023-05-06T17:18:56;24.42;62.07
66337;SHT30;53139;45.576;5.304;2023-05-06T17:21:56;24.45;60.02
66337;SHT30;53139;45.576;5.304;2023-05-06T17:24:57;24.47;61.30
66337;SHT30;53139;45.576;5.304;2023-05-06T17:27:57;24.10;62.16
66337;SHT30;53139;45.576;5.304;2023-05-06T17:30:58;24.17;64.44
66337;SHT30;53139;45.576;5.304;2023-05-06T17:33:58;23.79;61.69
66337;SHT30;53139;45.576;5.304;2023-05-06T17:36:58;23.38;66.64
66337;SHT30;53139;45.576;5.304;2023-05-06T17:39:59;23.65;62.21
66337;SHT30;53139;45.576;5.304;2023-05-06T17:42:59;23.62;63.31
66337;SHT30;53139;45.576;5.304;2023-05-06T17:46:00;23.82;62.22
66337;SHT30;53139;45.576;5.304;2023-05-06T17:49:00;23.67;61.92
66337;SHT30;53139;45.576;5.304;2023-05-06T17:52:01;23.73;62.33
66337;SHT30;53139;45.576;5.304;2023-05-06T17:55:01;23.72;62.57
66337;SHT30;53139;45.576;5.304;2023-05-06T17:58:01;23.14;64.22
66337;SHT30;53139;45.576;5.304;2023-05-06T18:01:02;23.07;64.52
66337;SHT30;53139;45.576;5.304;2023-05-06T18:04:02;23.18;64.26
66337;SHT30;53139;45.576;5.304;2023-05-06T18:07:03;23.10;65.65
66337;SHT30;53139;45.576;5.304;2023-05-06T18:10:03;22.83;65.37
66337;SHT30;53139;45.576;5.304;2023-05-06T18:13:04;22.66;67.71
66337;SHT30;53139;45.576;5.304;2023-05-06T18:16:05;22.82;65.37
66337;SHT30;53139;45.576;5.304;2023-05-06T18:19:05;22.73;66.29
66337;SHT30;53139;45.576;5.304;2023-05-06T18:22:05;22.79;67.36
66337;SHT30;53139;45.576;5.304;2023-05-06T18:25:06;22.76;68.15
66337;SHT30;53139;45.576;5.304;2023-05-06T18:28:07;22.22;70.49
66337;SHT30;53139;45.576;5.304;2023-05-06T18:31:07;22.21;69.38
66337;SHT30;53139;45.576;5.304;2023-05-06T18:34:08;22.20;68.69
66337;SHT30;53139;45.576;5.304;2023-05-06T18:37:08;22.08;69.06
66337;SHT30;53139;45.576;5.304;2023-05-06T18:40:09;22.29;68.19
66337;SHT30;53139;45.576;5.304;2023-05-06T18:43:09;22.15;68.99
66337;SHT30;53139;45.576;5.304;2023-05-06T18:46:10;22.18;68.91
66337;SHT30;53139;45.576;5.304;2023-05-06T18:49:10;22.08;69.59
66337;SHT30;53139;45.576;5.304;2023-05-06T18:52:13;21.70;70.72
66337;SHT30;53139;45.576;5.304;2023-05-06T18:55:14;21.63;70.12
66337;SHT30;53139;45.576;5.304;2023-05-06T18:58:14;21.25;71.53
66337;SHT30;53139;45.576;5.304;2023-05-06T19:01:17;21.29;71.99
66337;SHT30;53139;45.576;5.304;2023-05-06T19:04:17;20.83;74.68
66337;SHT30;53139;45.576;5.304;2023-05-06T19:07:18;20.90;73.62
66337;SHT30;53139;45.576;5.304;2023-05-06T19:10:18;21.08;71.64
66337;SHT30;53139;45.576;5.304;2023-05-06T19:13:19;21.12;71.82
66337;SHT30;53139;45.576;5.304;2023-05-06T19:16:19;21.02;72.37
66337;SHT30;53139;45.576;5.304;2023-05-06T19:19:19;20.60;73.89
66337;SHT30;53139;45.576;5.304;2023-05-06T19:22:20;20.56;74.35
66337;SHT30;53139;45.576;5.304;2023-05-06T19:25:20;20.69;73.25
66337;SHT30;53139;45.576;5.304;2023-05-06T19:28:20;20.36;73.59
66337;SHT30;53139;45.576;5.304;2023-05-06T19:31:21;19.94;75.02
66337;SHT30;53139;45.576;5.304;2023-05-06T19:34:21;20.22;73.19
66337;SHT30;53139;45.576;5.304;2023-05-06T19:37:22;20.00;74.98
66337;SHT30;53139;45.576;5.304;2023-05-06T19:40:22;19.85;74.86
66337;SHT30;53139;45.576;5.304;2023-05-06T19:43:22;19.92;75.32
66337;SHT30;53139;45.576;5.304;2023-05-06T19:46:23;19.67;76.84